Time;durP1;ratioP1;P1;durP2;ratioP2;P2;SDS_P1;SDS_P2;PMS_P1;PMS_P2;Temp;Humidity;BMP_temperature;BMP_pressure;BME280_temperature;BME280_humidity;BME280_pressure;Samples;Min_cycle;Max_cycle;Signal;HPM_P1;HPM_P2
2023/12/09 00:01:22;;;;;;;0.75;0.75;;;;;;;10.58;100.00;98812.84;5092753;28;20016;-47
2023/12/09 00:03:48;;;;;;;0.15;0.15;;;;;;;10.65;100.00;98813.69;5091411;28;20512;-48
2023/12/09 00:06:14;;;;;;;1.33;1.10;;;;;;;10.72;100.00;98814.50;5091337;28;20093;-48
2023/12/09 00:08:40;;;;;;;1.98;1.08;;;;;;;10.68;100.00;98823.78;5091347;28;20578;-48
2023/12/09 00:11:06;;;;;;;0.05;0.05;;;;;;;10.45;100.00;98824.13;5091169;28;20584;-48
2023/12/09 00:13:32;;;;;;;2.28;0.93;;;;;;;10.39;100.00;98830.94;5092597;28;20032;-48
2023/12/09 00:15:59;;;;;;;0.43;0.43;;;;;;;10.46;100.00;98835.41;5091155;28;20028;-48
2023/12/09 00:18:25;;;;;;;1.27;1.17;;;;;;;10.51;100.00;98830.41;5091132;28;20035;-48
2023/12/09 00:20:50;;;;;;;2.55;2.38;;;;;;;10.30;100.00;98828.69;5092436;28;20490;-48
2023/12/09 00:23:16;;;;;;;1.30;1.20;;;;;;;10.27;100.00;98831.69;5091063;28;20516;-48
2023/12/09 00:25:42;;;;;;;0.22;0.22;;;;;;;10.06;100.00;98835.19;5092349;28;20023;-48
2023/12/09 00:28:08;;;;;;;2.65;1.25;;;;;;;9.68;100.00;98828.50;5091005;28;20024;-48
2023/12/09 00:30:33;;;;;;;0.32;0.32;;;;;;;9.67;100.00;98833.94;5090900;28;20486;-48
2023/12/09 00:32:59;;;;;;;0.00;0.00;;;;;;;9.67;100.00;98833.94;5090443;28;20486;-50
2023/12/09 00:35:25;;;;;;;0.47;0.45;;;;;;;9.49;100.00;98832.59;5090919;28;20097;-48
2023/12/09 00:37:50;;;;;;;0.10;0.10;;;;;;;9.28;100.00;98833.44;5092188;28;20031;-48
2023/12/09 00:40:18;;;;;;;0.52;0.52;;;;;;;9.19;100.00;98839.78;5090824;28;20485;-48
2023/12/09 00:42:45;;;;;;;0.10;0.10;;;;;;;9.02;100.00;98846.28;5090797;28;20490;-48
2023/12/09 00:45:11;;;;;;;0.00;0.00;;;;;;;8.84;100.00;98839.66;5092092;28;20457;-48
2023/12/09 00:47:36;;;;;;;0.85;0.85;;;;;;;8.71;100.00;98829.03;5092032;28;20059;-48
2023/12/09 00:50:02;;;;;;;1.65;1.55;;;;;;;8.65;100.00;98835.78;5091949;28;20044;-48
2023/12/09 00:52:28;;;;;;;1.83;1.73;;;;;;;8.59;100.00;98832.13;5090681;28;20038;-47
2023/12/09 00:54:53;;;;;;;0.17;0.17;;;;;;;8.50;100.00;98840.25;5090642;28;20512;-48
2023/12/09 00:57:20;;;;;;;0.68;0.68;;;;;;;8.55;100.00;98843.97;5091915;28;20035;-48
2023/12/09 00:59:47;;;;;;;0.10;0.10;;;;;;;8.55;100.00;98838.72;5092140;28;20054;-48
2023/12/09 01:02:12;;;;;;;0.65;0.65;;;;;;;8.44;100.00;98841.78;5091889;28;20070;-48
2023/12/09 01:04:38;;;;;;;3.13;1.85;;;;;;;8.45;100.00;98838.22;5090565;28;20024;-48
2023/12/09 01:07:04;;;;;;;0.15;0.15;;;;;;;8.38;100.00;98834.66;5090511;28;20027;-47
2023/12/09 01:09:30;;;;;;;0.13;0.13;;;;;;;8.12;100.00;98832.50;5090453;28;20390;-48
2023/12/09 01:11:55;;;;;;;0.17;0.17;;;;;;;7.86;100.00;98836.38;5090488;28;20405;-48
2023/12/09 01:14:21;;;;;;;0.10;0.10;;;;;;;8.36;100.00;98832.22;5090439;28;20051;-48
2023/12/09 01:16:47;;;;;;;0.55;0.55;;;;;;;9.38;100.00;98826.06;5090423;28;20432;-48
2023/12/09 01:19:12;;;;;;;1.10;1.10;;;;;;;10.14;100.00;98821.91;5090389;28;20043;-48
2023/12/09 01:21:38;;;;;;;3.85;3.53;;;;;;;10.15;100.00;98823.53;5090313;28;20111;-48
2023/12/09 01:24:04;;;;;;;0.88;0.88;;;;;;;9.84;100.00;98824.78;5090355;28;20028;-48
2023/12/09 01:26:31;;;;;;;0.35;0.35;;;;;;;9.41;100.00;98819.63;5090465;28;20021;-48
2023/12/09 01:28:59;;;;;;;1.67;1.55;;;;;;;9.04;100.00;98832.00;5091898;28;20035;-48
2023/12/09 01:31:25;;;;;;;0.47;0.47;;;;;;;8.83;100.00;98832.78;5091555;28;20043;-48
2023/12/09 01:33:50;;;;;;;0.38;0.38;;;;;;;8.77;100.00;98834.34;5091420;28;20040;-48
2023/12/09 01:36:16;;;;;;;1.23;1.17;;;;;;;9.21;100.00;98829.94;5091560;28;20031;-48
2023/12/09 01:38:42;;;;;;;0.03;0.03;;;;;;;9.43;100.00;98825.47;5090345;28;20482;-48
2023/12/09 01:41:08;;;;;;;0.22;0.22;;;;;;;9.86;100.00;98817.53;5091521;28;20043;-48
2023/12/09 01:43:34;;;;;;;0.60;0.60;;;;;;;10.34;100.00;98806.31;5091568;28;20170;-48
2023/12/09 01:46:06;;;;;;;0.05;0.05;;;;;;;10.44;100.00;98805.94;5092148;28;20028;-48
2023/12/09 01:48:33;;;;;;;0.65;0.65;;;;;;;10.18;100.00;98810.84;5095396;28;20031;-48
2023/12/09 01:51:01;;;;;;;0.50;0.50;;;;;;;9.71;100.00;98811.59;5095176;28;20020;-48
2023/12/09 01:53:28;;;;;;;0.52;0.52;;;;;;;9.29;100.00;98813.28;5095308;28;20205;-48
2023/12/09 01:55:54;;;;;;;0.57;0.43;;;;;;;8.96;100.00;98813.78;5095229;28;20403;-48
2023/12/09 01:58:20;;;;;;;0.63;0.63;;;;;;;8.68;100.00;98819.75;5093965;28;20021;-48
2023/12/09 02:00:46;;;;;;;0.30;0.30;;;;;;;8.38;100.00;98819.75;5095132;28;20028;-48
2023/12/09 02:03:11;;;;;;;0.93;0.65;;;;;;;8.22;100.00;98819.16;5095096;28;20020;-48
2023/12/09 02:05:37;;;;;;;0.45;0.45;;;;;;;8.10;100.00;98819.63;5093677;28;20028;-48
2023/12/09 02:08:03;;;;;;;0.82;0.82;;;;;;;8.00;100.00;98804.19;5094965;28;20016;-48
2023/12/09 02:10:29;;;;;;;0.40;0.40;;;;;;;8.01;100.00;98802.41;5094863;28;20027;-48
2023/12/09 02:13:07;;;;;;;0.00;0.00;;;;;;;8.16;100.00;98803.19;5093554;28;20028;-48
2023/12/09 02:15:40;;;;;;;0.08;0.08;;;;;;;8.48;100.00;98795.97;5094854;28;20024;-48
2023/12/09 02:18:07;;;;;;;0.93;0.93;;;;;;;9.25;100.00;98788.47;5094834;28;20482;-48
2023/12/09 02:20:33;;;;;;;2.55;2.35;;;;;;;9.50;100.00;98786.25;5094726;28;20059;-48
2023/12/09 02:23:08;;;;;;;0.80;0.77;;;;;;;9.89;100.00;98785.69;5093385;28;20028;-48
2023/12/09 02:25:36;;;;;;;0.00;0.00;;;;;;;10.23;100.00;98778.78;5093378;28;20032;-48
2023/12/09 02:28:24;;;;;;;2.05;1.85;;;;;;;10.35;100.00;98771.19;5094522;28;20382;-48
2023/12/09 02:31:13;;;;;;;0.00;0.00;;;;;;;10.31;100.00;98780.47;5094038;28;20050;-49
2023/12/09 02:33:43;;;;;;;0.00;0.00;;;;;;;10.73;100.00;98778.59;5094315;28;20052;-49
2023/12/09 02:36:17;;;;;;;1.27;1.17;;;;;;;10.76;100.00;98778.16;5093063;28;20081;-49
2023/12/09 02:38:44;;;;;;;0.28;0.28;;;;;;;10.74;100.00;98774.94;5093141;28;20024;-49
2023/12/09 02:41:11;;;;;;;0.22;0.22;;;;;;;10.93;100.00;98758.41;5094343;28;20026;-49
2023/12/09 02:43:37;;;;;;;0.30;0.30;;;;;;;11.08;100.00;98760.03;5094313;28;20023;-49
2023/12/09 02:46:02;;;;;;;2.67;2.47;;;;;;;11.00;100.00;98759.22;5094224;28;20024;-49
2023/12/09 02:48:28;;;;;;;0.90;0.82;;;;;;;10.83;100.00;98751.94;5093019;28;20028;-49
2023/12/09 02:50:55;;;;;;;0.10;0.10;;;;;;;10.81;100.00;98748.72;5092763;28;20024;-49
2023/12/09 02:53:21;;;;;;;0.10;0.10;;;;;;;10.97;100.00;98756.19;5092774;28;20024;-49
2023/12/09 02:55:46;;;;;;;1.05;1.05;;;;;;;10.91;100.00;98760.44;5094020;28;20107;-49
2023/12/09 02:58:12;;;;;;;0.20;0.20;;;;;;;10.50;100.00;98757.91;5094008;28;20016;-49
2023/12/09 03:00:38;;;;;;;0.30;0.30;;;;;;;10.37;100.00;98763.94;5094011;28;20024;-49
2023/12/09 03:03:04;;;;;;;0.30;0.30;;;;;;;10.15;100.00;98774.53;5092633;28;20024;-49
2023/12/09 03:05:29;;;;;;;0.35;0.35;;;;;;;9.90;100.00;98771.59;5092577;28;20020;-49
2023/12/09 03:07:55;;;;;;;1.30;1.20;;;;;;;9.63;100.00;98770.59;5093873;28;20023;-49
2023/12/09 03:10:21;;;;;;;0.13;0.13;;;;;;;9.34;100.00;98780.28;5093671;28;20028;-48
2023/12/09 03:12:46;;;;;;;0.10;0.10;;;;;;;9.09;100.00;98787.72;5093766;28;20020;-49
2023/12/09 03:15:12;;;;;;;0.22;0.22;;;;;;;9.15;100.00;98765.22;5092381;28;20105;-49
2023/12/09 03:17:38;;;;;;;1.63;1.52;;;;;;;9.33;100.00;98749.84;5093692;28;20107;-49
2023/12/09 03:20:08;;;;;;;0.80;0.80;;;;;;;9.45;100.00;98757.19;5092277;28;20028;-49
2023/12/09 03:22:34;;;;;;;1.30;1.20;;;;;;;9.28;100.00;98754.06;5093667;28;20016;-49
2023/12/09 03:24:59;;;;;;;0.88;0.85;;;;;;;9.06;100.00;98753.28;5093609;28;20028;-49
2023/12/09 03:27:25;;;;;;;0.63;0.63;;;;;;;8.91;100.00;98764.59;5093493;28;20020;-48
2023/12/09 03:29:51;;;;;;;0.32;0.32;;;;;;;8.92;100.00;98766.25;5093664;28;20497;-49
2023/12/09 03:32:16;;;;;;;1.38;1.17;;;;;;;9.03;100.00;98777.19;5093281;28;20035;-48
2023/12/09 03:34:45;;;;;;;1.65;0.68;;;;;;;9.33;100.00;98770.00;5091949;28;20044;-49
2023/12/09 03:37:11;;;;;;;0.08;0.08;;;;;;;9.90;100.00;98766.34;5093240;28;20045;-49
2023/12/09 03:39:36;;;;;;;0.32;0.32;;;;;;;10.26;100.00;98767.94;5091959;28;20020;-49
2023/12/09 03:42:02;;;;;;;0.32;0.32;;;;;;;10.22;100.00;98756.19;5093155;28;20020;-49
2023/12/09 03:44:28;;;;;;;1.58;1.48;;;;;;;9.69;100.00;98764.59;5093139;28;20024;-49
2023/12/09 03:46:53;;;;;;;0.00;0.00;;;;;;;9.09;100.00;98769.41;5091767;28;20020;-48
2023/12/09 03:49:19;;;;;;;0.65;0.65;;;;;;;8.64;100.00;98767.97;5092997;28;20020;-48
2023/12/09 03:51:45;;;;;;;0.75;0.75;;;;;;;8.22;100.00;98775.53;5091570;28;20039;-48
2023/12/09 03:54:10;;;;;;;3.60;1.85;;;;;;;7.95;100.00;98769.16;5092963;28;20020;-47
2023/12/09 03:56:36;;;;;;;0.00;0.00;;;;;;;7.76;100.00;98771.31;5092920;28;20103;-47
2023/12/09 03:59:02;;;;;;;1.27;1.17;;;;;;;7.64;100.00;98772.75;5091564;28;20028;-47
2023/12/09 04:01:27;;;;;;;0.03;0.03;;;;;;;7.79;100.00;98764.94;5091595;28;20027;-47
2023/12/09 04:03:53;;;;;;;2.83;2.13;;;;;;;8.00;100.00;98767.59;5091432;28;20405;-47
2023/12/09 04:06:19;;;;;;;0.28;0.28;;;;;;;7.96;100.00;98755.09;5091403;28;20016;-47
2023/12/09 04:08:45;;;;;;;0.30;0.30;;;;;;;7.69;100.00;98759.16;5092188;28;20035;-47
2023/12/09 04:11:11;;;;;;;1.23;0.88;;;;;;;8.02;100.00;98761.41;5091163;28;20024;-47
2023/12/09 04:13:36;;;;;;;1.25;1.17;;;;;;;8.47;100.00;98757.75;5091420;28;20024;-47
2023/12/09 04:16:02;;;;;;;0.15;0.15;;;;;;;8.76;100.00;98758.63;5091217;28;20024;-47
2023/12/09 04:18:28;;;;;;;0.10;0.10;;;;;;;8.97;100.00;98752.59;5092451;28;20537;-47
2023/12/09 04:20:54;;;;;;;0.32;0.32;;;;;;;9.05;100.00;98762.13;5092500;28;20024;-48
2023/12/09 04:23:19;;;;;;;0.28;0.28;;;;;;;9.34;100.00;98761.16;5091062;28;20031;-47
2023/12/09 04:25:45;;;;;;;0.40;0.40;;;;;;;9.32;100.00;98763.97;5092420;28;20169;-47
2023/12/09 04:28:14;;;;;;;0.38;0.38;;;;;;;9.40;100.00;98763.81;5092333;28;20382;-47
2023/12/09 04:30:39;;;;;;;0.40;0.40;;;;;;;9.72;100.00;98758.19;5092470;28;20413;-47
2023/12/09 04:33:05;;;;;;;0.30;0.30;;;;;;;9.98;100.00;98758.31;5092001;28;20043;-47
2023/12/09 04:35:31;;;;;;;0.30;0.30;;;;;;;9.70;100.00;98763.63;5092294;28;20512;-47
2023/12/09 04:37:56;;;;;;;0.00;0.00;;;;;;;9.16;100.00;98761.63;5092225;28;20020;-47
2023/12/09 04:40:22;;;;;;;0.75;0.50;;;;;;;8.85;100.00;98775.81;5090823;28;20024;-48
2023/12/09 04:42:48;;;;;;;1.52;1.42;;;;;;;9.17;100.00;98771.88;5092186;28;20427;-47
2023/12/09 04:45:14;;;;;;;0.10;0.10;;;;;;;9.70;100.00;98749.69;5092058;28;20145;-48
2023/12/09 04:47:39;;;;;;;1.10;0.82;;;;;;;9.63;100.00;98757.50;5092124;28;20056;-47
2023/12/09 04:50:08;;;;;;;1.35;1.08;;;;;;;9.29;100.00;98750.44;5090620;28;20028;-47
2023/12/09 04:52:35;;;;;;;0.10;0.10;;;;;;;9.07;100.00;98762.75;5092050;28;20525;-48
2023/12/09 04:55:03;;;;;;;0.25;0.25;;;;;;;8.79;100.00;98742.56;5091936;28;20046;-47
2023/12/09 04:57:30;;;;;;;1.70;1.45;;;;;;;8.62;100.00;98746.44;5092161;28;20035;-48
2023/12/09 04:59:56;;;;;;;0.20;0.20;;;;;;;8.58;100.00;98744.16;5090655;28;20043;-48
2023/12/09 05:02:21;;;;;;;0.13;0.05;;;;;;;8.56;100.00;98756.63;5091894;28;20063;-48
2023/12/09 05:04:47;;;;;;;0.08;0.08;;;;;;;8.49;100.00;98771.47;5092119;28;20027;-47
2023/12/09 05:07:13;;;;;;;0.10;0.10;;;;;;;8.39;100.00;98760.41;5090524;28;20442;-47
2023/12/09 05:09:38;;;;;;;0.15;0.15;;;;;;;8.26;100.00;98753.25;5091832;28;20073;-48
2023/12/09 05:12:04;;;;;;;8.93;7.95;;;;;;;8.13;100.00;98758.31;5090420;28;20493;-48
2023/12/09 05:14:30;;;;;;;7.80;7.25;;;;;;;8.05;100.00;98764.47;5090488;28;20028;-47
2023/12/09 05:16:56;;;;;;;7.57;6.97;;;;;;;8.05;100.00;98755.78;5091770;28;20020;-47
2023/12/09 05:19:22;;;;;;;3.15;2.92;;;;;;;7.92;100.00;98752.03;5090424;28;20426;-48
2023/12/09 05:21:48;;;;;;;3.53;3.17;;;;;;;7.99;100.00;98752.13;5093880;28;20036;-48
2023/12/09 05:24:13;;;;;;;3.08;2.88;;;;;;;8.42;100.00;98744.41;5095849;28;20103;-47
2023/12/09 05:26:39;;;;;;;2.72;1.80;;;;;;;9.06;100.00;98730.53;5095791;28;20024;-48
2023/12/09 05:29:06;;;;;;;0.98;0.98;;;;;;;9.38;100.00;98734.38;5095753;28;20486;-48
2023/12/09 05:31:32;;;;;;;0.08;0.08;;;;;;;9.03;100.00;98730.09;5095615;28;20047;-48
2023/12/09 05:33:57;;;;;;;0.22;0.22;;;;;;;8.42;100.00;98731.34;5095440;28;20521;-48
2023/12/09 05:36:23;;;;;;;1.20;0.88;;;;;;;7.89;100.00;98728.09;5095627;28;20131;-47
2023/12/09 05:38:49;;;;;;;3.67;1.10;;;;;;;7.40;100.00;98730.25;5094215;28;20129;-47
2023/12/09 05:41:14;;;;;;;0.22;0.22;;;;;;;7.09;100.00;98727.75;5095449;28;20031;-47
2023/12/09 05:43:40;;;;;;;0.10;0.10;;;;;;;6.90;100.00;98739.50;5095480;28;20402;-47
2023/12/09 05:46:06;;;;;;;0.28;0.15;;;;;;;6.79;100.00;98737.28;5094081;28;20383;-47
2023/12/09 05:48:35;;;;;;;0.10;0.10;;;;;;;7.05;100.00;98746.56;5095334;28;20505;-47
2023/12/09 05:51:01;;;;;;;0.00;0.00;;;;;;;7.13;100.00;98746.47;5095254;28;20058;-47
2023/12/09 05:53:27;;;;;;;0.10;0.10;;;;;;;7.24;100.00;98747.84;5093977;28;20125;-47
2023/12/09 05:55:53;;;;;;;1.90;1.80;;;;;;;7.93;100.00;98745.81;5095212;28;20541;-45
2023/12/09 05:58:18;;;;;;;0.73;0.73;;;;;;;8.43;100.00;98742.59;5095186;28;20111;-45
2023/12/09 06:00:44;;;;;;;0.35;0.35;;;;;;;8.65;100.00;98727.72;5093790;28;20515;-45
2023/12/09 06:03:10;;;;;;;1.20;1.17;;;;;;;8.86;100.00;98708.63;5095316;28;20416;-45
2023/12/09 06:05:36;;;;;;;0.10;0.10;;;;;;;8.85;100.00;98699.94;5095069;28;20023;-45
2023/12/09 06:08:02;;;;;;;0.75;0.75;;;;;;;8.77;100.00;98684.38;5094986;28;20024;-45
2023/12/09 06:10:28;;;;;;;1.75;1.05;;;;;;;8.54;100.00;98677.53;5093572;28;20024;-45
2023/12/09 06:12:53;;;;;;;0.40;0.40;;;;;;;8.09;100.00;98678.63;5094927;28;20050;-45
2023/12/09 06:15:19;;;;;;;0.45;0.45;;;;;;;7.63;100.00;98686.75;5094841;28;20030;-45
2023/12/09 06:17:44;;;;;;;0.10;0.10;;;;;;;7.20;100.00;98677.75;5093581;28;20410;-47
2023/12/09 06:20:10;;;;;;;0.10;0.10;;;;;;;7.09;100.00;98675.56;5094745;28;20016;-47
2023/12/09 06:22:36;;;;;;;0.20;0.20;;;;;;;7.74;100.00;98670.59;5094725;28;20048;-47
2023/12/09 06:25:02;;;;;;;0.00;0.00;;;;;;;8.27;100.00;98663.38;5093319;28;20026;-47
2023/12/09 06:27:28;;;;;;;0.50;0.40;;;;;;;8.28;100.00;98657.13;5093316;28;20027;-47
2023/12/09 06:29:54;;;;;;;0.82;0.82;;;;;;;8.19;100.00;98646.00;5093172;28;20027;-47
2023/12/09 06:32:19;;;;;;;0.00;0.00;;;;;;;8.37;100.00;98642.97;5094070;28;20020;-47
2023/12/09 06:34:45;;;;;;;0.43;0.43;;;;;;;8.75;100.00;98650.56;5092897;28;20121;-47
2023/12/09 06:37:11;;;;;;;0.20;0.20;;;;;;;8.82;100.00;98650.59;5093101;28;20100;-47
2023/12/09 06:39:37;;;;;;;0.65;0.65;;;;;;;9.23;100.00;98636.78;5093136;28;20020;-47
2023/12/09 06:42:03;;;;;;;0.10;0.10;;;;;;;9.35;100.00;98650.13;5092969;28;20035;-47
2023/12/09 06:44:28;;;;;;;0.10;0.10;;;;;;;8.61;100.00;98654.03;5094347;28;20028;-48
2023/12/09 06:46:54;;;;;;;0.30;0.30;;;;;;;8.44;100.00;98663.16;5094277;28;20020;-47
2023/12/09 06:49:20;;;;;;;0.90;0.90;;;;;;;8.97;100.00;98666.22;5094212;28;20028;-47
2023/12/09 06:51:48;;;;;;;0.10;0.10;;;;;;;9.57;100.00;98658.72;5094376;28;20024;-47
2023/12/09 06:54:13;;;;;;;0.10;0.10;;;;;;;9.79;100.00;98662.84;5092816;28;20028;-48
2023/12/09 06:56:39;;;;;;;0.20;0.20;;;;;;;9.79;100.00;98667.28;5094023;28;20020;-48
2023/12/09 06:59:05;;;;;;;0.40;0.40;;;;;;;9.51;100.00;98669.97;5092686;28;20059;-48
2023/12/09 07:01:31;;;;;;;0.00;0.00;;;;;;;9.16;100.00;98677.84;5093999;28;20060;-48
2023/12/09 07:03:57;;;;;;;0.00;0.00;;;;;;;8.85;100.00;98672.97;5093979;28;20145;-48
2023/12/09 07:06:28;;;;;;;0.35;0.35;;;;;;;8.49;100.00;98674.69;5092544;28;20027;-48
2023/12/09 07:08:54;;;;;;;0.52;0.52;;;;;;;8.25;100.00;98677.59;5092576;28;20031;-48
2023/12/09 07:11:22;;;;;;;0.00;0.00;;;;;;;8.41;100.00;98666.97;5092385;28;20024;-48
2023/12/09 07:13:48;;;;;;;0.00;0.00;;;;;;;8.66;100.00;98658.72;5093722;28;20038;-48
2023/12/09 07:16:14;;;;;;;0.30;0.30;;;;;;;8.39;100.00;98666.28;5092368;28;20027;-48
2023/12/09 07:18:43;;;;;;;0.25;0.25;;;;;;;7.86;100.00;98671.75;5092362;28;20524;-48
2023/12/09 07:21:10;;;;;;;0.10;0.10;;;;;;;7.51;100.00;98689.00;5092288;28;20115;-48
2023/12/09 07:23:36;;;;;;;0.15;0.15;;;;;;;7.27;100.00;98693.50;5092320;28;20020;-48
2023/12/09 07:26:02;;;;;;;0.00;0.00;;;;;;;7.16;100.00;98683.47;5092162;28;20129;-48
2023/12/09 07:28:29;;;;;;;4.00;1.02;;;;;;;7.09;100.00;98679.97;5092160;28;20032;-48
2023/12/09 07:30:55;;;;;;;3.92;2.17;;;;;;;7.12;100.00;98675.22;5093301;28;20076;-48
2023/12/09 07:33:21;;;;;;;0.10;0.10;;;;;;;7.02;100.00;98652.97;5091759;28;20052;-48
2023/12/09 07:35:46;;;;;;;2.60;2.28;;;;;;;6.93;100.00;98644.41;5092346;28;20486;-48
2023/12/09 07:38:12;;;;;;;1.20;1.20;;;;;;;7.13;100.00;98665.59;5092119;28;20065;-48
2023/12/09 07:40:38;;;;;;;0.55;0.55;;;;;;;7.33;100.00;98658.84;5093208;28;20629;-48
2023/12/09 07:43:04;;;;;;;0.20;0.20;;;;;;;7.33;100.00;98645.78;5091318;28;20035;-48
2023/12/09 07:45:30;;;;;;;1.10;0.75;;;;;;;6.93;100.00;98632.16;5093140;28;20016;-48
2023/12/09 07:47:56;;;;;;;0.20;0.20;;;;;;;6.60;100.00;98634.28;5091757;28;20524;-48
2023/12/09 07:50:22;;;;;;;0.20;0.20;;;;;;;6.47;100.00;98642.66;5092936;28;20020;-48
2023/12/09 07:52:47;;;;;;;0.55;0.55;;;;;;;6.45;100.00;98638.63;5093006;28;20024;-48
2023/12/09 07:55:13;;;;;;;0.45;0.45;;;;;;;7.04;100.00;98636.13;5092956;28;20016;-48
2023/12/09 07:57:39;;;;;;;0.43;0.43;;;;;;;7.22;100.00;98645.41;5092874;28;20035;-48
2023/12/09 08:00:05;;;;;;;0.30;0.30;;;;;;;7.48;100.00;98650.19;5092857;28;20026;-48
2023/12/09 08:02:31;;;;;;;0.17;0.17;;;;;;;8.21;100.00;98643.22;5092845;28;20026;-49
2023/12/09 08:04:57;;;;;;;0.10;0.10;;;;;;;9.17;100.00;98627.06;5074655;28;20027;-49
2023/12/09 08:07:22;;;;;;;0.30;0.30;;;;;;;9.74;100.00;98641.66;5092776;28;20030;-49
2023/12/09 08:09:48;;;;;;;0.38;0.38;;;;;;;10.15;100.00;98650.47;5092660;28;20443;-49
2023/12/09 08:12:14;;;;;;;0.10;0.10;;;;;;;10.27;100.00;98653.31;5092551;28;20012;-49
2023/12/09 08:14:39;;;;;;;0.00;0.00;;;;;;;10.20;100.00;98632.31;5091340;28;20489;-49
2023/12/09 08:17:05;;;;;;;0.00;0.00;;;;;;;10.21;100.00;98618.19;5091293;28;20028;-49
2023/12/09 08:19:31;;;;;;;0.00;0.00;;;;;;;9.95;100.00;98611.88;5074492;28;20035;-49
2023/12/09 08:21:56;;;;;;;0.15;0.15;;;;;;;9.92;100.00;98612.28;5092545;28;20553;-49
2023/12/09 08:24:22;;;;;;;0.32;0.25;;;;;;;10.25;100.00;98616.00;5091126;28;20554;-49
2023/12/09 08:26:48;;;;;;;1.65;1.38;;;;;;;10.52;100.00;98617.66;5092677;28;20406;-49
2023/12/09 08:29:14;;;;;;;0.00;0.00;;;;;;;10.30;100.00;98631.94;5091085;28;20027;-49
2023/12/09 08:31:41;;;;;;;2.35;1.17;;;;;;;9.93;100.00;98629.63;5092253;28;20030;-49
2023/12/09 08:34:06;;;;;;;0.00;0.00;;;;;;;9.57;100.00;98633.31;5092088;28;20036;-49
2023/12/09 08:36:32;;;;;;;0.00;0.00;;;;;;;9.37;100.00;98630.59;5091048;28;20077;-49
2023/12/09 08:39:01;;;;;;;0.05;0.05;;;;;;;9.11;100.00;98628.63;5092259;28;20451;-49
2023/12/09 08:41:26;;;;;;;0.80;0.45;;;;;;;8.89;100.00;98630.50;5090853;28;20028;-49
2023/12/09 08:43:52;;;;;;;0.85;0.80;;;;;;;8.97;100.00;98627.78;5092398;28;20371;-49
2023/12/09 08:46:18;;;;;;;0.63;0.60;;;;;;;9.03;100.00;98636.66;5090754;28;20055;-49
2023/12/09 08:48:45;;;;;;;1.27;1.27;;;;;;;9.63;100.00;98636.19;5092097;28;20065;-49
2023/12/09 08:51:11;;;;;;;0.98;0.55;;;;;;;10.12;100.00;98635.09;5090614;28;20027;-49
2023/12/09 08:53:36;;;;;;;0.65;0.65;;;;;;;10.46;100.00;98628.13;5092020;28;20095;-49
2023/12/09 08:56:03;;;;;;;0.10;0.10;;;;;;;10.74;100.00;98627.94;5090562;28;20119;-49
2023/12/09 08:58:28;;;;;;;0.22;0.22;;;;;;;10.36;100.00;98618.88;5092261;28;20031;-49
2023/12/09 09:00:54;;;;;;;0.10;0.10;;;;;;;9.99;100.00;98609.69;5091983;28;20397;-49
2023/12/09 09:03:20;;;;;;;0.32;0.32;;;;;;;9.71;100.00;98607.19;5091997;28;20055;-49
2023/12/09 09:05:46;;;;;;;0.10;0.10;;;;;;;9.48;100.00;98610.13;5091884;28;20051;-49
2023/12/09 09:08:11;;;;;;;2.28;2.17;;;;;;;9.44;100.00;98612.31;5091774;28;20118;-49
2023/12/09 09:10:37;;;;;;;4.57;3.40;;;;;;;9.93;100.00;98619.13;5091844;28;20028;-49
2023/12/09 09:13:03;;;;;;;3.60;1.95;;;;;;;10.59;100.00;98612.41;5091804;28;20048;-49
2023/12/09 09:15:28;;;;;;;2.35;2.20;;;;;;;10.89;100.00;98610.16;5091763;28;20036;-49
2023/12/09 09:17:54;;;;;;;0.15;0.15;;;;;;;10.95;100.00;98608.56;5091852;28;20028;-49
2023/12/09 09:20:20;;;;;;;0.15;0.15;;;;;;;10.52;100.00;98615.03;5090399;28;20123;-49
2023/12/09 09:22:47;;;;;;;1.15;1.08;;;;;;;9.95;100.00;98608.47;5090548;28;20028;-49
2023/12/09 09:25:13;;;;;;;4.05;1.88;;;;;;;9.52;100.00;98608.72;5091656;28;20042;-49
2023/12/09 09:27:38;;;;;;;0.10;0.10;;;;;;;9.50;100.00;98608.13;5090351;28;20032;-49
2023/12/09 09:30:05;;;;;;;0.03;0.03;;;;;;;9.65;100.00;98606.16;5090229;28;20028;-49
2023/12/09 09:32:31;;;;;;;0.85;0.85;;;;;;;10.34;100.00;98601.69;5091668;28;20024;-49
2023/12/09 09:34:57;;;;;;;0.00;0.00;;;;;;;11.25;100.00;98608.06;5091453;28;20068;-49
2023/12/09 09:37:23;;;;;;;0.75;0.60;;;;;;;11.63;100.00;98609.97;5090225;28;20058;-49
2023/12/09 09:39:49;;;;;;;0.10;0.10;;;;;;;11.73;100.00;98605.06;5091861;28;20374;-50
2023/12/09 09:42:36;;;;;;;0.10;0.10;;;;;;;12.00;100.00;98592.63;5091512;28;20450;-49
2023/12/09 09:45:20;;;;;;;1.75;1.27;;;;;;;12.39;100.00;98578.41;5090291;28;20035;-49
2023/12/09 09:47:48;;;;;;;0.10;0.10;;;;;;;12.36;100.00;98565.66;5091535;28;20393;-50
2023/12/09 09:50:18;;;;;;;0.75;0.75;;;;;;;12.42;100.00;98563.19;5090080;28;20031;-49
2023/12/09 09:52:45;;;;;;;0.50;0.50;;;;;;;12.43;100.00;98559.53;5090210;28;20486;-49
2023/12/09 09:55:14;;;;;;;0.17;0.17;;;;;;;12.82;100.00;98560.19;5073274;28;20020;-50
2023/12/09 09:57:42;;;;;;;0.35;0.35;;;;;;;12.91;100.00;98554.41;5073322;28;20024;-49
2023/12/09 10:00:16;;;;;;;0.47;0.47;;;;;;;12.86;100.00;98559.53;5091287;28;20016;-47
2023/12/09 10:02:46;;;;;;;0.50;0.50;;;;;;;13.33;100.00;98543.25;5091437;28;20020;-47
2023/12/09 10:05:15;;;;;;;0.20;0.20;;;;;;;13.89;100.00;98533.38;5073930;28;20039;-47
2023/12/09 10:07:42;;;;;;;0.25;0.25;;;;;;;13.89;100.00;98538.66;5094595;28;20062;-47
2023/12/09 10:10:09;;;;;;;0.00;0.00;;;;;;;13.71;100.00;98548.22;5094896;28;20031;-47
2023/12/09 10:12:35;;;;;;;0.00;0.00;;;;;;;13.45;100.00;98552.00;5093608;28;20024;-47
2023/12/09 10:15:02;;;;;;;0.00;0.00;;;;;;;13.18;100.00;98539.13;5095154;28;20112;-47
2023/12/09 10:17:28;;;;;;;0.38;0.35;;;;;;;12.23;100.00;98536.78;5093593;28;20028;-47
2023/12/09 10:20:00;;;;;;;0.25;0.25;;;;;;;11.58;100.00;98527.28;5094774;28;20024;-47
2023/12/09 10:22:27;;;;;;;0.03;0.03;;;;;;;11.16;100.00;98515.56;5093811;28;20028;-47
2023/12/09 10:24:54;;;;;;;1.02;0.68;;;;;;;10.99;100.00;98504.72;5076534;28;20497;-47
2023/12/09 10:27:22;;;;;;;0.00;0.00;;;;;;;11.06;100.00;98504.69;5093310;28;20030;-48
2023/12/09 10:29:52;;;;;;;1.15;1.13;;;;;;;11.03;100.00;98499.84;5094865;28;20020;-47
2023/12/09 10:32:22;;;;;;;0.00;0.00;;;;;;;10.89;100.00;98499.09;5093354;28;20039;-47
2023/12/09 10:34:48;;;;;;;0.20;0.20;;;;;;;10.64;100.00;98510.25;5093013;28;20067;-48
2023/12/09 10:37:17;;;;;;;0.00;0.00;;;;;;;10.64;100.00;98499.75;5094474;28;20062;-48
2023/12/09 10:39:49;;;;;;;0.45;0.45;;;;;;;10.55;100.00;98509.66;5093141;28;20409;-47
2023/12/09 10:42:15;;;;;;;0.00;0.00;;;;;;;10.55;100.00;98501.78;5093088;28;20028;-47
2023/12/09 10:44:42;;;;;;;0.00;0.00;;;;;;;10.49;100.00;98505.22;5093052;28;20039;-48
2023/12/09 10:47:07;;;;;;;7.68;1.08;;;;;;;10.41;100.00;98488.91;5094310;28;20023;-47
2023/12/09 10:49:34;;;;;;;0.10;0.10;;;;;;;10.27;100.00;98502.00;5093071;28;20397;-47
2023/12/09 10:52:00;;;;;;;0.05;0.05;;;;;;;10.35;100.00;98498.38;5092830;28;20024;-47
2023/12/09 10:54:26;;;;;;;0.00;0.00;;;;;;;10.33;100.00;98497.78;5094486;28;20028;-47
2023/12/09 10:56:52;;;;;;;0.40;0.40;;;;;;;10.35;100.00;98498.38;5092825;28;20375;-47
2023/12/09 10:59:18;;;;;;;0.20;0.20;;;;;;;10.43;100.00;98487.69;5094079;28;20097;-48
2023/12/09 11:01:45;;;;;;;0.00;0.00;;;;;;;10.67;100.00;98496.72;5092743;28;20032;-47
2023/12/09 11:04:14;;;;;;;0.00;0.00;;;;;;;10.90;100.00;98491.00;5075850;28;20111;-47
2023/12/09 11:06:45;;;;;;;0.10;0.10;;;;;;;11.11;100.00;98497.81;5093911;28;20481;-48
2023/12/09 11:09:14;;;;;;;0.00;0.00;;;;;;;11.17;100.00;98494.34;5093949;28;20039;-47
2023/12/09 11:11:41;;;;;;;0.00;0.00;;;;;;;11.17;100.00;98496.97;5092366;28;20024;-48
2023/12/09 11:14:10;;;;;;;0.00;0.00;;;;;;;11.13;100.00;98490.53;5092512;28;20115;-47
2023/12/09 11:16:42;;;;;;;0.05;0.05;;;;;;;11.09;100.00;98484.06;5092445;28;20023;-47
2023/12/09 11:19:16;;;;;;;0.00;0.00;;;;;;;11.05;100.00;98484.72;5092490;28;20113;-47
2023/12/09 11:21:46;;;;;;;0.35;0.35;;;;;;;10.92;100.00;98470.59;5092337;28;20028;-48
2023/12/09 11:24:13;;;;;;;0.00;0.00;;;;;;;10.78;100.00;98477.72;5092269;28;20082;-47
2023/12/09 11:26:41;;;;;;;0.00;0.00;;;;;;;10.87;100.00;98454.66;5093562;28;20051;-47
2023/12/09 11:29:08;;;;;;;0.00;0.00;;;;;;;10.88;100.00;98463.34;5092139;28;20043;-47